Time;durP1;ratioP1;P1;durP2;ratioP2;P2;SDS_P1;SDS_P2;PMS_P1;PMS_P2;Temp;Humidity;BMP_temperature;BMP_pressure;BME280_temperature;BME280_humidity;BME280_pressure;Samples;Min_cycle;Max_cycle;Signal;HPM_P1;HPM_P2
2023/06/02 00:01:53;;;;;;;8.60;3.20;;;;;;;15.62;49.17;102056.25;5075082;28;20016;-69
2023/06/02 00:04:26;;;;;;;12.98;3.30;;;;;;;15.47;49.26;102066.09;5074363;28;20449;-68
2023/06/02 00:06:51;;;;;;;9.95;3.08;;;;;;;15.55;49.36;102067.59;5083970;28;20025;-67
2023/06/02 00:09:16;;;;;;;10.02;3.13;;;;;;;15.58;49.51;102057.84;5069512;28;20361;-68
2023/06/02 00:11:41;;;;;;;10.80;3.97;;;;;;;15.56;49.39;102060.94;5069072;28;20039;-68
2023/06/02 00:14:07;;;;;;;7.55;3.33;;;;;;;15.42;49.83;102062.38;5066337;28;20040;-68
2023/06/02 00:16:41;;;;;;;7.45;3.25;;;;;;;15.46;49.67;102064.41;5066386;28;20472;-69
2023/06/02 00:19:07;;;;;;;7.20;3.35;;;;;;;15.40;49.50;102054.22;5059023;28;20079;-68
2023/06/02 00:21:33;;;;;;;9.43;3.38;;;;;;;15.38;49.28;102061.19;5051356;28;20052;-69
2023/06/02 00:23:58;;;;;;;8.68;3.50;;;;;;;15.38;49.33;102064.84;5067253;28;20108;-68
2023/06/02 00:26:23;;;;;;;7.65;3.40;;;;;;;15.44;49.36;102060.16;5081175;28;20020;-68
2023/06/02 00:28:49;;;;;;;7.35;3.40;;;;;;;15.39;48.99;102055.34;5090666;28;20032;-68
2023/06/02 00:31:14;;;;;;;9.18;3.40;;;;;;;15.38;49.18;102059.25;5090931;28;20523;-68
2023/06/02 00:33:41;;;;;;;7.88;3.50;;;;;;;15.32;49.36;102057.47;5062476;28;20041;-68
2023/06/02 00:36:06;;;;;;;6.30;2.92;;;;;;;15.30;49.21;102058.84;5061341;28;20547;-68
2023/06/02 00:38:32;;;;;;;8.35;3.67;;;;;;;15.34;48.94;102057.22;5068334;28;20020;-68
2023/06/02 00:40:57;;;;;;;6.60;3.35;;;;;;;15.32;48.41;102056.63;5065180;28;20063;-68
2023/06/02 00:43:22;;;;;;;9.85;3.70;;;;;;;15.35;48.73;102050.50;5055675;28;20020;-69
2023/06/02 00:45:48;;;;;;;10.15;3.38;;;;;;;15.31;48.41;102052.97;5073620;28;20040;-68
2023/06/02 00:48:13;;;;;;;11.27;4.00;;;;;;;15.25;48.47;102055.94;5090510;28;20020;-68
2023/06/02 00:50:38;;;;;;;5.88;3.42;;;;;;;15.15;48.39;102053.84;5090115;28;20036;-69
2023/06/02 00:53:04;;;;;;;9.43;3.38;;;;;;;15.15;48.59;102051.88;5059654;28;20051;-69
2023/06/02 00:55:30;;;;;;;9.77;3.60;;;;;;;15.06;48.55;102049.78;5087328;28;20522;-69
2023/06/02 00:57:58;;;;;;;6.07;3.00;;;;;;;15.09;48.40;102049.25;5080804;28;20028;-69
2023/06/02 01:00:24;;;;;;;10.70;3.33;;;;;;;15.02;48.23;102055.03;5070351;28;20413;-68
2023/06/02 01:02:50;;;;;;;10.57;3.45;;;;;;;15.04;48.35;102057.56;5074502;28;20103;-69
2023/06/02 01:05:19;;;;;;;9.35;2.95;;;;;;;15.09;48.31;102052.03;5084360;28;20791;-68
2023/06/02 01:07:45;;;;;;;9.65;3.47;;;;;;;15.06;48.23;102053.41;5085436;28;20114;-68
2023/06/02 01:10:14;;;;;;;9.70;3.58;;;;;;;15.05;48.44;102064.84;5077006;28;20028;-68
2023/06/02 01:12:40;;;;;;;8.75;3.60;;;;;;;15.05;48.16;102053.66;5069695;28;20052;-68
2023/06/02 01:15:05;;;;;;;17.13;4.22;;;;;;;15.01;48.35;102066.44;5068078;28;20037;-68
2023/06/02 01:17:35;;;;;;;10.13;3.47;;;;;;;15.03;48.07;102064.25;5069795;28;20476;-68
2023/06/02 01:20:08;;;;;;;12.13;3.80;;;;;;;14.97;48.08;102066.09;5082018;28;20028;-68
2023/06/02 01:22:58;;;;;;;11.35;3.63;;;;;;;14.95;48.06;102063.56;5089170;28;20028;-68
2023/06/02 01:25:26;;;;;;;13.55;4.00;;;;;;;14.96;47.43;102056.03;5085244;28;20059;-68
2023/06/02 01:27:51;;;;;;;11.32;3.80;;;;;;;14.93;47.39;102062.13;5070281;28;20074;-68
2023/06/02 01:30:18;;;;;;;10.85;3.47;;;;;;;14.91;47.37;102069.94;5069794;28;20025;-68
2023/06/02 01:32:55;;;;;;;9.77;3.92;;;;;;;14.92;47.23;102058.47;5067718;28;20021;-68
2023/06/02 01:35:26;;;;;;;12.93;3.70;;;;;;;14.92;47.30;102057.63;5082868;28;20032;-68
2023/06/02 01:37:56;;;;;;;9.30;3.85;;;;;;;14.81;47.52;102061.34;5090032;28;20028;-68
2023/06/02 01:40:24;;;;;;;13.45;4.30;;;;;;;14.88;47.25;102062.03;5087888;28;20504;-68
2023/06/02 01:42:50;;;;;;;13.35;4.18;;;;;;;14.87;46.92;102060.34;5073190;28;20032;-68
2023/06/02 01:45:16;;;;;;;16.90;4.07;;;;;;;14.89;46.96;102053.38;5053685;28;20043;-68
2023/06/02 01:47:42;;;;;;;13.60;3.55;;;;;;;14.89;47.40;102058.13;5068692;28;20487;-68
2023/06/02 01:50:07;;;;;;;17.55;4.03;;;;;;;14.83;47.47;102048.81;5072882;28;20075;-68
2023/06/02 01:52:32;;;;;;;10.57;3.75;;;;;;;14.80;47.26;102056.88;5091430;28;20042;-68
2023/06/02 01:54:58;;;;;;;11.43;3.25;;;;;;;14.80;47.49;102045.69;5089100;28;20044;-68
2023/06/02 01:57:23;;;;;;;12.27;3.47;;;;;;;14.80;47.69;102054.06;5073048;28;20029;-68
2023/06/02 01:59:49;;;;;;;11.90;3.47;;;;;;;14.77;47.84;102054.56;5065471;28;20048;-68
2023/06/02 02:02:14;;;;;;;14.55;4.00;;;;;;;14.80;47.56;102054.91;5052778;28;20025;-68
2023/06/02 02:04:40;;;;;;;10.65;3.50;;;;;;;14.81;47.53;102059.41;5080007;28;20038;-68
2023/06/02 02:07:08;;;;;;;14.32;3.40;;;;;;;14.79;47.78;102053.22;5076675;28;20020;-68
2023/06/02 02:09:34;;;;;;;13.23;4.00;;;;;;;14.75;47.98;102052.03;5080374;28;20032;-68
2023/06/02 02:12:00;;;;;;;15.25;3.53;;;;;;;14.73;48.01;102052.28;5072536;28;20059;-68
2023/06/02 02:14:26;;;;;;;13.45;3.65;;;;;;;14.70;48.63;102060.34;5065200;28;20469;-68
2023/06/02 02:16:52;;;;;;;11.77;4.30;;;;;;;14.65;48.08;102051.84;5052571;28;20496;-68
2023/06/02 02:19:18;;;;;;;13.20;3.78;;;;;;;14.61;48.71;102054.28;5084512;28;20032;-69
2023/06/02 02:21:44;;;;;;;13.00;3.63;;;;;;;14.65;48.56;102051.84;5072002;28;20153;-68
2023/06/02 02:24:09;;;;;;;12.38;3.85;;;;;;;14.64;48.39;102055.75;5072787;28;20044;-68
2023/06/02 02:26:35;;;;;;;13.25;3.55;;;;;;;14.66;48.42;102050.75;5070516;28;20040;-68
2023/06/02 02:29:00;;;;;;;12.50;3.83;;;;;;;14.65;48.46;102055.47;5090966;28;20024;-68
2023/06/02 02:31:27;;;;;;;11.80;3.10;;;;;;;14.68;48.61;102051.34;5089323;28;20032;-68
2023/06/02 02:33:53;;;;;;;17.35;4.22;;;;;;;14.62;48.63;102053.22;5083821;28;20035;-68
2023/06/02 02:36:18;;;;;;;11.65;3.60;;;;;;;14.72;48.37;102055.31;5090133;28;20474;-68
2023/06/02 02:38:44;;;;;;;9.52;3.50;;;;;;;14.69;48.59;102044.66;5086889;28;20029;-68
2023/06/02 02:41:10;;;;;;;12.20;3.75;;;;;;;14.58;49.20;102045.56;5072078;28;20021;-69
2023/06/02 02:43:36;;;;;;;13.57;3.67;;;;;;;14.53;49.01;102042.66;5079111;28;20036;-68
2023/06/02 02:46:01;;;;;;;10.80;3.50;;;;;;;14.55;49.14;102037.69;5087989;28;20027;-68
2023/06/02 02:48:26;;;;;;;9.93;3.50;;;;;;;14.62;49.58;102042.03;5092827;28;20031;-68
2023/06/02 02:50:52;;;;;;;10.27;3.28;;;;;;;14.59;49.20;102044.47;5086527;28;20044;-69
2023/06/02 02:53:17;;;;;;;13.15;4.00;;;;;;;14.51;49.63;102050.47;5087395;28;20036;-68
2023/06/02 02:55:44;;;;;;;11.00;3.80;;;;;;;14.56;49.41;102036.59;5072245;28;20384;-68
2023/06/02 02:58:09;;;;;;;12.93;3.90;;;;;;;14.49;49.88;102034.78;5069740;28;20029;-68
2023/06/02 03:00:35;;;;;;;9.75;3.75;;;;;;;14.46;50.25;102043.66;5070052;28;20039;-68
2023/06/02 03:03:01;;;;;;;13.43;3.90;;;;;;;14.49;49.98;102036.72;5084554;28;20026;-68
2023/06/02 03:05:27;;;;;;;12.15;4.18;;;;;;;14.57;50.06;102039.13;5071472;28;20024;-68
2023/06/02 03:07:52;;;;;;;12.20;3.60;;;;;;;14.49;49.79;102040.38;5067508;28;20051;-68
2023/06/02 03:10:17;;;;;;;14.20;3.83;;;;;;;14.53;50.00;102039.88;5073617;28;20082;-68
2023/06/02 03:12:43;;;;;;;12.60;3.88;;;;;;;14.47;50.17;102038.91;5069493;28;20048;-68
2023/06/02 03:15:08;;;;;;;11.23;3.75;;;;;;;14.53;49.72;102042.66;5057609;28;20029;-68
2023/06/02 03:17:34;;;;;;;16.10;4.20;;;;;;;14.51;50.08;102054.13;5051719;28;20083;-69
2023/06/02 03:20:00;;;;;;;17.05;3.90;;;;;;;14.57;49.92;102055.03;5070105;28;20031;-68
2023/06/02 03:22:25;;;;;;;13.85;4.25;;;;;;;14.53;50.13;102051.06;5071554;28;20107;-69
2023/06/02 03:24:50;;;;;;;10.43;3.72;;;;;;;14.47;50.23;102053.72;5070402;28;20123;-68
2023/06/02 03:27:16;;;;;;;15.15;3.90;;;;;;;14.48;49.70;102049.81;5071594;28;20108;-68
2023/06/02 03:29:42;;;;;;;15.25;4.20;;;;;;;14.49;50.16;102051.53;5071774;28;20028;-68
2023/06/02 03:32:09;;;;;;;13.63;3.92;;;;;;;14.49;50.17;102047.91;5071054;28;20403;-68
2023/06/02 03:34:35;;;;;;;13.27;3.75;;;;;;;14.52;50.13;102046.56;5071010;28;20098;-69
2023/06/02 03:37:01;;;;;;;12.23;3.70;;;;;;;14.48;50.13;102058.22;5086154;28;20055;-68
2023/06/02 03:39:26;;;;;;;14.00;4.07;;;;;;;14.49;49.57;102056.28;5070623;28;20024;-68
2023/06/02 03:41:52;;;;;;;11.88;3.38;;;;;;;14.49;49.72;102057.13;5065870;28;20025;-69
2023/06/02 03:44:17;;;;;;;12.30;3.72;;;;;;;14.48;49.23;102062.94;5051494;28;20115;-69
2023/06/02 03:46:42;;;;;;;12.15;4.15;;;;;;;14.48;49.25;102061.00;5050722;28;20035;-69
2023/06/02 03:49:08;;;;;;;8.75;3.95;;;;;;;14.43;49.16;102066.50;5068745;28;20021;-68
2023/06/02 03:51:33;;;;;;;12.30;3.75;;;;;;;14.31;49.68;102065.69;5069471;28;20384;-68
2023/06/02 03:53:58;;;;;;;10.93;3.78;;;;;;;14.40;48.96;102064.19;5069756;28;20127;-69
2023/06/02 03:56:24;;;;;;;11.38;3.42;;;;;;;14.41;48.85;102068.69;5071106;28;20028;-69
2023/06/02 03:58:49;;;;;;;11.88;3.70;;;;;;;14.34;49.05;102065.19;5066391;28;20039;-68
2023/06/02 04:01:18;;;;;;;9.32;3.40;;;;;;;14.23;49.06;102066.09;5049361;28;20434;-68
2023/06/02 04:03:43;;;;;;;11.65;3.67;;;;;;;14.27;49.23;102067.28;5050923;28;20017;-69
2023/06/02 04:06:09;;;;;;;14.90;3.22;;;;;;;14.34;49.15;102072.72;5067621;28;20120;-68
2023/06/02 04:08:35;;;;;;;10.30;3.35;;;;;;;14.21;49.45;102073.88;5069618;28;20076;-68
2023/06/02 04:11:00;;;;;;;13.35;4.03;;;;;;;14.18;49.58;102079.94;5070431;28;20024;-68
2023/06/02 04:13:27;;;;;;;11.63;3.47;;;;;;;14.21;49.88;102074.69;5062556;28;20595;-68
2023/06/02 04:15:52;;;;;;;9.75;3.47;;;;;;;14.19;50.00;102078.84;5058265;28;20033;-69
2023/06/02 04:18:23;;;;;;;10.02;3.28;;;;;;;14.22;49.11;102076.41;5066962;28;20035;-68
2023/06/02 04:20:49;;;;;;;21.95;3.78;;;;;;;14.20;49.24;102070.22;5070129;28;20039;-68
2023/06/02 04:23:14;;;;;;;9.30;3.15;;;;;;;14.25;48.90;102069.47;5068728;28;20037;-68
2023/06/02 04:25:40;;;;;;;10.48;3.50;;;;;;;14.09;48.94;102071.09;5070228;28;20024;-68
2023/06/02 04:28:05;;;;;;;12.43;3.63;;;;;;;14.15;48.75;102080.44;5070072;28;20494;-69
2023/06/02 04:30:31;;;;;;;10.95;3.20;;;;;;;14.19;48.82;102074.13;5088099;28;20020;-68
2023/06/02 04:32:56;;;;;;;8.93;2.92;;;;;;;14.16;48.25;102068.19;5078205;28;20033;-68
2023/06/02 04:35:21;;;;;;;8.43;3.25;;;;;;;14.17;48.69;102064.28;5049492;28;20110;-68
2023/06/02 04:37:46;;;;;;;9.98;3.72;;;;;;;14.11;48.81;102070.84;5060448;28;20039;-68
2023/06/02 04:40:15;;;;;;;10.27;3.80;;;;;;;14.08;49.03;102068.56;5070403;28;20036;-69
2023/06/02 04:42:40;;;;;;;9.75;3.88;;;;;;;14.06;48.90;102074.38;5069469;28;20429;-69
2023/06/02 04:45:16;;;;;;;12.77;3.75;;;;;;;14.04;49.12;102067.38;5070579;28;20064;-69
2023/06/02 04:47:42;;;;;;;9.15;3.33;;;;;;;14.06;49.04;102074.38;5070670;28;20024;-68
2023/06/02 04:50:09;;;;;;;10.35;4.05;;;;;;;14.04;48.89;102073.78;5061926;28;20029;-68
2023/06/02 04:52:38;;;;;;;14.05;3.53;;;;;;;14.06;49.16;102073.53;5060102;28;20388;-68
2023/06/02 04:55:03;;;;;;;8.75;3.20;;;;;;;14.07;49.28;102078.03;5070844;28;20123;-68
2023/06/02 04:57:29;;;;;;;10.52;3.25;;;;;;;14.05;49.04;102074.63;5068984;28;20111;-69
2023/06/02 04:59:54;;;;;;;11.45;3.47;;;;;;;14.04;49.07;102081.31;5070058;28;20040;-68
2023/06/02 05:02:20;;;;;;;11.20;3.15;;;;;;;14.03;48.22;102076.81;5067604;28;20457;-68
2023/06/02 05:04:45;;;;;;;12.00;3.45;;;;;;;13.97;48.37;102084.25;5065868;28;20029;-68
2023/06/02 05:07:10;;;;;;;8.35;3.00;;;;;;;13.96;48.98;102091.78;5064585;28;20036;-68
2023/06/02 05:09:36;;;;;;;7.93;2.83;;;;;;;13.98;48.54;102091.50;5064838;28;20044;-68
2023/06/02 05:12:02;;;;;;;7.07;2.72;;;;;;;13.98;49.01;102094.31;5056688;28;20177;-68
2023/06/02 05:14:27;;;;;;;14.05;3.30;;;;;;;13.98;48.76;102089.56;5066474;28;20025;-68
2023/06/02 05:16:54;;;;;;;9.60;3.03;;;;;;;13.97;48.49;102090.66;5069132;28;20121;-69
2023/06/02 05:19:19;;;;;;;8.63;3.13;;;;;;;13.93;48.67;102095.06;5072763;28;20108;-68
2023/06/02 05:21:44;;;;;;;7.03;3.00;;;;;;;13.96;48.80;102091.78;5072476;28;20600;-68
2023/06/02 05:24:10;;;;;;;11.07;2.80;;;;;;;13.96;48.14;102094.56;5070460;28;20169;-68
2023/06/02 05:26:37;;;;;;;9.98;2.78;;;;;;;13.94;48.82;102093.94;5073976;28;20025;-68
2023/06/02 05:29:05;;;;;;;11.32;2.65;;;;;;;13.99;48.36;102096.03;5077909;28;20097;-68
2023/06/02 05:31:30;;;;;;;12.80;3.13;;;;;;;14.00;48.83;102101.34;5052538;28;20039;-68
2023/06/02 05:33:56;;;;;;;10.10;2.90;;;;;;;13.99;48.53;102101.59;5053674;28;20029;-68
2023/06/02 05:36:21;;;;;;;11.73;3.20;;;;;;;13.96;48.23;102096.50;5065984;28;20388;-68
2023/06/02 05:38:46;;;;;;;12.80;3.03;;;;;;;13.94;48.25;102102.31;5072499;28;20025;-68
2023/06/02 05:41:12;;;;;;;11.15;2.75;;;;;;;13.86;48.72;102099.91;5064277;28;20563;-68
2023/06/02 05:43:37;;;;;;;8.70;3.00;;;;;;;13.85;48.82;102091.78;5057088;28;20021;-68
2023/06/02 05:46:02;;;;;;;11.07;2.90;;;;;;;13.85;48.75;102092.63;5053230;28;20107;-68
2023/06/02 05:48:28;;;;;;;13.45;3.28;;;;;;;13.89;48.57;102104.16;5072954;28;20106;-69
2023/06/02 05:50:53;;;;;;;9.63;2.90;;;;;;;13.85;48.79;102098.22;5072301;28;20035;-68
2023/06/02 05:53:18;;;;;;;13.23;3.15;;;;;;;13.90;48.65;102098.31;5071843;28;20058;-68
2023/06/02 05:55:43;;;;;;;8.40;2.75;;;;;;;13.91;48.69;102105.63;5071452;28;20039;-68
2023/06/02 05:58:09;;;;;;;12.80;3.33;;;;;;;13.90;48.72;102098.31;5059498;28;20040;-68
2023/06/02 06:00:34;;;;;;;11.75;3.35;;;;;;;13.92;48.36;102100.88;5072415;28;20112;-68
2023/06/02 06:03:00;;;;;;;11.65;3.45;;;;;;;13.89;48.79;102099.44;5073163;28;20048;-67
2023/06/02 06:05:25;;;;;;;11.63;3.25;;;;;;;13.83;48.75;102113.50;5070226;28;20024;-66
2023/06/02 06:07:53;;;;;;;12.45;2.83;;;;;;;13.73;49.24;102098.22;5069964;28;20036;-66
2023/06/02 06:10:19;;;;;;;10.95;3.05;;;;;;;13.65;49.03;102098.59;5069181;28;20094;-69
2023/06/02 06:12:44;;;;;;;14.52;2.78;;;;;;;13.66;49.19;102100.28;5071474;28;20052;-68
2023/06/02 06:15:10;;;;;;;8.70;3.00;;;;;;;13.64;49.74;102098.84;5064815;28;20040;-68
2023/06/02 06:17:47;;;;;;;14.02;3.42;;;;;;;13.78;49.45;102103.06;5062955;28;20032;-69
2023/06/02 06:20:15;;;;;;;12.30;3.05;;;;;;;13.78;48.85;102102.22;5072852;28;20100;-68
2023/06/02 06:22:40;;;;;;;13.95;3.50;;;;;;;13.78;48.70;102102.22;5069236;28;20123;-68
2023/06/02 06:25:06;;;;;;;13.45;3.38;;;;;;;13.72;49.19;102110.50;5065146;28;20116;-69
2023/06/02 06:27:31;;;;;;;11.88;2.85;;;;;;;13.77;48.57;102101.38;5058087;28;20644;-66
2023/06/02 06:29:56;;;;;;;9.73;3.05;;;;;;;13.79;49.13;102099.19;5061171;28;20040;-67
2023/06/02 06:32:22;;;;;;;9.00;3.00;;;;;;;13.83;48.50;102105.97;5056954;28;20038;-64
2023/06/02 06:34:47;;;;;;;9.20;3.03;;;;;;;13.87;48.66;102110.00;5058740;28;20127;-67
2023/06/02 06:37:12;;;;;;;12.48;3.05;;;;;;;13.86;48.58;102108.28;5051336;28;20051;-67
2023/06/02 06:39:38;;;;;;;10.43;3.15;;;;;;;13.83;48.34;102108.75;5051255;28;20029;-69
2023/06/02 06:42:03;;;;;;;12.82;3.35;;;;;;;13.88;48.86;102106.09;5068694;28;20031;-69
2023/06/02 06:44:31;;;;;;;12.57;3.30;;;;;;;13.84;48.50;102113.28;5055724;28;20086;-68
2023/06/02 06:46:56;;;;;;;15.00;3.28;;;;;;;13.84;48.87;102107.69;5055867;28;20028;-68
2023/06/02 06:49:22;;;;;;;10.05;3.08;;;;;;;13.90;49.10;102117.03;5055734;28;20025;-69
2023/06/02 06:51:47;;;;;;;12.32;3.08;;;;;;;13.91;48.43;102111.22;5055053;28;20563;-67
2023/06/02 06:54:12;;;;;;;11.90;2.95;;;;;;;13.89;48.13;102109.75;5063596;28;20024;-67
2023/06/02 06:56:38;;;;;;;13.85;2.90;;;;;;;13.87;48.57;102109.13;5053973;28;20036;-67
2023/06/02 06:59:04;;;;;;;11.32;2.88;;;;;;;13.92;48.46;102110.09;5059232;28;20036;-71
2023/06/02 07:01:29;;;;;;;8.02;2.70;;;;;;;13.90;48.23;102101.13;5059478;28;20025;-70
2023/06/02 07:03:54;;;;;;;12.10;3.33;;;;;;;13.91;48.22;102108.41;5050413;28;20039;-70
2023/06/02 07:06:20;;;;;;;15.70;3.17;;;;;;;13.90;48.28;102106.69;5065047;28;20056;-71
2023/06/02 07:08:45;;;;;;;9.35;3.00;;;;;;;13.82;48.43;102112.66;5050938;28;20029;-70
2023/06/02 07:11:11;;;;;;;9.45;3.10;;;;;;;13.82;48.96;102114.59;5061701;28;20030;-72
2023/06/02 07:13:38;;;;;;;15.98;3.35;;;;;;;13.78;49.01;102110.59;5057310;28;20075;-69
2023/06/02 07:16:05;;;;;;;14.02;3.03;;;;;;;13.84;48.70;102112.44;5059107;28;20459;-69
2023/06/02 07:18:30;;;;;;;16.52;3.60;;;;;;;13.88;48.82;102106.09;5061061;28;20029;-68
2023/06/02 07:20:55;;;;;;;9.80;3.10;;;;;;;13.91;48.94;102114.00;5051167;28;20499;-68
2023/06/02 07:23:20;;;;;;;10.85;3.00;;;;;;;13.94;48.05;102113.50;5059787;28;20043;-68
2023/06/02 07:25:46;;;;;;;17.23;3.58;;;;;;;13.96;48.51;102116.06;5068349;28;20063;-67
2023/06/02 07:28:11;;;;;;;11.95;3.00;;;;;;;14.02;48.28;102117.00;5066672;28;20038;-67
2023/06/02 07:30:43;;;;;;;12.05;2.75;;;;;;;13.98;47.95;102114.69;5050232;28;20029;-66
2023/06/02 07:33:11;;;;;;;10.00;2.90;;;;;;;14.02;48.05;102125.38;5065316;28;20032;-67
2023/06/02 07:35:36;;;;;;;12.93;2.85;;;;;;;14.04;47.75;102124.03;5066776;28;21074;-67
2023/06/02 07:38:01;;;;;;;11.90;2.88;;;;;;;14.04;48.12;102126.84;5051922;28;20029;-67
2023/06/02 07:40:27;;;;;;;13.80;3.20;;;;;;;14.10;48.30;102128.63;5065247;28;20135;-66
2023/06/02 07:42:52;;;;;;;12.70;3.13;;;;;;;14.10;48.29;102125.84;5070256;28;20036;-67
2023/06/02 07:45:17;;;;;;;13.57;3.00;;;;;;;14.10;48.96;102122.19;5063528;28;20040;-61
2023/06/02 07:47:43;;;;;;;10.77;3.45;;;;;;;14.17;48.43;102125.72;5057338;28;20033;-66
2023/06/02 07:50:09;;;;;;;12.82;3.40;;;;;;;14.10;48.35;102114.66;5085650;28;20757;-66
2023/06/02 07:52:34;;;;;;;16.45;3.40;;;;;;;14.11;48.30;102113.59;5084429;28;20554;-66
2023/06/02 07:55:00;;;;;;;13.30;3.03;;;;;;;14.16;48.46;102115.66;5069868;28;20032;-67
2023/06/02 07:57:25;;;;;;;9.75;2.45;;;;;;;14.11;48.23;102118.31;5066875;28;20382;-66
2023/06/02 07:59:52;;;;;;;8.38;2.83;;;;;;;14.20;48.42;102105.69;5063842;28;20055;-67
2023/06/02 08:02:17;;;;;;;11.57;3.50;;;;;;;14.23;48.05;102116.38;5068371;28;20525;-67
2023/06/02 08:04:42;;;;;;;11.02;3.15;;;;;;;14.27;48.15;102103.59;5062916;28;20028;-66
2023/06/02 08:07:07;;;;;;;11.43;2.97;;;;;;;14.28;47.71;102119.25;5057519;28;20036;-66
2023/06/02 08:09:33;;;;;;;17.40;3.83;;;;;;;14.31;47.74;102107.59;5053000;28;20626;-66
2023/06/02 08:11:58;;;;;;;7.43;2.70;;;;;;;14.27;47.81;102114.78;5063991;28;20059;-66
2023/06/02 08:14:23;;;;;;;9.57;2.60;;;;;;;14.30;47.63;102117.03;5064032;28;20037;-67
2023/06/02 08:16:50;;;;;;;11.25;3.17;;;;;;;14.29;47.45;102114.50;5049952;28;20114;-67
2023/06/02 08:19:17;;;;;;;11.52;3.40;;;;;;;14.32;47.75;102109.28;5056480;28;20040;-68
2023/06/02 08:21:45;;;;;;;11.13;2.90;;;;;;;14.37;47.48;102117.75;5059283;28;20033;-67
2023/06/02 08:24:11;;;;;;;9.30;3.00;;;;;;;14.33;47.26;102116.56;5069407;28;20028;-67
2023/06/02 08:26:39;;;;;;;8.43;2.88;;;;;;;14.39;47.08;102114.75;5067752;28;20582;-67
2023/06/02 08:29:08;;;;;;;12.38;3.03;;;;;;;14.41;46.87;102115.31;5060445;28;20139;-67
2023/06/02 08:31:35;;;;;;;11.98;3.33;;;;;;;14.36;47.16;102116.06;5062097;28;20033;-67
2023/06/02 08:34:04;;;;;;;13.02;3.00;;;;;;;14.36;47.38;102121.66;5068478;28;20032;-67
2023/06/02 08:36:30;;;;;;;11.25;3.20;;;;;;;14.32;46.98;102120.47;5067161;28;20044;-67
2023/06/02 08:38:55;;;;;;;12.38;3.33;;;;;;;14.38;47.39;102118.59;5069136;28;20028;-67
2023/06/02 08:41:22;;;;;;;14.85;3.30;;;;;;;14.37;46.96;102122.50;5068423;28;20749;-67
2023/06/02 08:43:47;;;;;;;12.05;3.30;;;;;;;14.38;47.11;102116.69;5060047;28;20461;-67
2023/06/02 08:46:14;;;;;;;12.02;3.15;;;;;;;14.43;47.23;102113.16;5051053;28;20017;-66
2023/06/02 08:48:45;;;;;;;15.15;3.35;;;;;;;14.45;47.20;102111.78;5055862;28;20857;-66
2023/06/02 08:51:14;;;;;;;13.13;3.08;;;;;;;14.55;47.57;102107.53;5066650;28;20079;-66
2023/06/02 08:53:40;;;;;;;11.23;2.95;;;;;;;14.58;47.16;102110.69;5072794;28;20219;-68
2023/06/02 08:56:07;;;;;;;9.02;3.13;;;;;;;14.52;46.65;102113.63;5071144;28;20431;-65
2023/06/02 08:58:32;;;;;;;11.40;3.03;;;;;;;14.57;46.83;102113.72;5068745;28;20039;-66
2023/06/02 09:00:58;;;;;;;12.98;3.30;;;;;;;14.54;46.67;102108.63;5055273;28;20029;-67
2023/06/02 09:03:27;;;;;;;11.15;3.08;;;;;;;14.53;46.87;102098.56;5056117;28;20056;-66
2023/06/02 09:05:52;;;;;;;14.70;3.15;;;;;;;14.54;47.08;102105.81;5057846;28;20036;-67
2023/06/02 09:08:18;;;;;;;12.57;3.15;;;;;;;14.47;46.73;102103.16;5065551;28;20764;-67
2023/06/02 09:10:45;;;;;;;10.27;2.80;;;;;;;14.51;47.30;102101.59;5057421;28;20037;-67
2023/06/02 09:13:28;;;;;;;9.27;3.00;;;;;;;14.67;47.56;102111.97;5050293;28;20134;-67
2023/06/02 09:16:01;;;;;;;16.10;4.03;;;;;;;14.75;47.12;102107.09;5061245;28;20029;-67
2023/06/02 09:18:27;;;;;;;12.57;3.42;;;;;;;14.80;46.91;102107.19;5048866;28;20052;-66
2023/06/02 09:20:53;;;;;;;11.80;3.40;;;;;;;14.88;46.79;102113.19;5060801;28;20029;-67
2023/06/02 09:23:19;;;;;;;16.92;3.45;;;;;;;14.97;46.65;102106.13;5053735;28;20185;-67
2023/06/02 09:25:48;;;;;;;14.05;3.53;;;;;;;15.12;46.69;102101.88;5060363;28;20071;-67
2023/06/02 09:28:13;;;;;;;13.02;3.40;;;;;;;15.18;47.01;102096.13;5052175;28;20078;-67
2023/06/02 09:30:39;;;;;;;13.00;3.55;;;;;;;15.20;46.15;102093.06;5059388;28;20482;-66
2023/06/02 09:33:11;;;;;;;12.68;3.67;;;;;;;15.20;46.31;102095.88;5071948;28;20028;-67
2023/06/02 09:35:40;;;;;;;11.55;3.58;;;;;;;15.25;46.33;102090.38;5061865;28;20362;-67
2023/06/02 09:38:07;;;;;;;10.98;3.45;;;;;;;15.24;46.46;102094.25;5054418;28;20064;-67
2023/06/02 09:40:37;;;;;;;10.93;3.53;;;;;;;15.27;46.42;102099.34;5072244;28;20839;-66
2023/06/02 09:43:04;;;;;;;14.40;3.42;;;;;;;15.35;46.15;102098.91;5071565;28;20047;-67
2023/06/02 09:45:30;;;;;;;15.63;3.40;;;;;;;15.51;46.01;102093.56;5068737;28;20024;-67
2023/06/02 09:47:56;;;;;;;12.10;3.38;;;;;;;15.54;45.60;102093.91;5067456;28;20119;-68
2023/06/02 09:50:36;;;;;;;13.63;3.25;;;;;;;15.67;45.42;102087.97;5060317;28;20029;-67
2023/06/02 09:53:06;;;;;;;12.77;3.90;;;;;;;15.74;45.58;102082.19;5070787;28;20025;-66
2023/06/02 09:55:33;;;;;;;13.20;3.22;;;;;;;15.76;45.71;102068.81;5070230;28;20078;-67
2023/06/02 09:58:00;;;;;;;12.52;3.38;;;;;;;15.86;46.62;102085.72;5069133;28;20027;-66
2023/06/02 10:00:25;;;;;;;13.00;3.40;;;;;;;16.01;46.07;102075.84;5061494;28;20109;-67
2023/06/02 10:02:51;;;;;;;13.70;3.90;;;;;;;16.03;45.93;102080.06;5052579;28;20439;-67
2023/06/02 10:05:21;;;;;;;14.20;2.88;;;;;;;16.14;46.05;102072.66;5069123;28;20384;-67
2023/06/02 10:08:04;;;;;;;13.07;3.25;;;;;;;16.21;45.61;102073.31;5067754;28;20029;-67
2023/06/02 10:10:44;;;;;;;7.85;2.80;;;;;;;16.44;48.92;102075.81;5054961;28;20435;-69
2023/06/02 10:13:26;;;;;;;10.77;3.50;;;;;;;16.40;46.12;102076.63;5057604;28;20420;-67
2023/06/02 10:16:29;;;;;;;12.07;3.75;;;;;;;16.39;45.70;102081.38;5058799;28;20067;-67
2023/06/02 10:19:27;;;;;;;15.10;3.50;;;;;;;16.49;45.92;102077.00;5062215;28;20480;-65
2023/06/02 10:22:37;;;;;;;12.18;3.58;;;;;;;16.46;45.91;102064.34;5061133;28;20021;-67
2023/06/02 10:25:41;;;;;;;10.93;3.40;;;;;;;16.43;45.82;102068.53;5020805;28;20097;-67
2023/06/02 10:28:08;;;;;;;9.68;3.63;;;;;;;16.44;45.65;102087.03;5057005;28;20036;-68
2023/06/02 10:30:37;;;;;;;12.63;3.83;;;;;;;16.45;45.12;102087.88;5071023;28;20462;-66
2023/06/02 10:33:03;;;;;;;10.93;3.15;;;;;;;16.42;45.27;102069.63;5070377;28;20072;-66
2023/06/02 10:35:58;;;;;;;13.75;4.05;;;;;;;16.44;45.84;102075.81;5069769;28;20078;-61
2023/06/02 10:38:26;;;;;;;11.88;3.83;;;;;;;16.42;45.94;102077.19;5064848;28;20039;-66
2023/06/02 10:40:54;;;;;;;16.13;3.95;;;;;;;16.36;45.39;102070.69;5068076;28;20059;-62
2023/06/02 10:43:20;;;;;;;10.35;3.25;;;;;;;16.40;46.60;102069.06;5064163;28;20090;-71
2023/06/02 10:45:46;;;;;;;8.05;3.05;;;;;;;16.49;45.95;102075.03;5061671;28;20028;-68
2023/06/02 10:48:41;;;;;;;13.40;4.35;;;;;;;16.58;45.92;102064.19;5067057;28;20507;-68
2023/06/02 10:51:08;;;;;;;11.93;4.00;;;;;;;16.57;46.80;102066.16;5063684;28;20067;-69
2023/06/02 10:54:01;;;;;;;11.80;3.42;;;;;;;16.63;46.73;102067.06;5057196;28;20558;-69
2023/06/02 10:56:36;;;;;;;8.55;3.50;;;;;;;16.56;46.47;102072.03;5050416;28;20039;-67
2023/06/02 10:59:02;;;;;;;8.90;3.47;;;;;;;16.52;46.52;102070.88;5055767;28;20054;-67
2023/06/02 11:01:45;;;;;;;11.40;3.45;;;;;;;16.60;46.69;102079.66;5055584;28;20460;-68
2023/06/02 11:04:23;;;;;;;;;;;;;;;16.71;46.27;102074.16;5059954;28;20032;-68
2023/06/02 11:07:25;;;;;;;14.57;3.83;;;;;;;16.67;46.32;102071.03;5065675;28;19921;-69
2023/06/02 11:09:55;;;;;;;8.30;3.38;;;;;;;16.66;46.85;102064.59;5068072;28;20115;-68
2023/06/02 11:12:49;;;;;;;13.55;4.18;;;;;;;16.79;47.07;102068.94;5067180;28;20036;-62
2023/06/02 11:15:15;;;;;;;13.75;4.05;;;;;;;16.76;46.63;102054.59;5059650;28;20120;-67
2023/06/02 11:17:42;;;;;;;9.60;3.70;;;;;;;16.80;47.04;102062.22;5079464;28;20032;-65
2023/06/02 11:20:07;;;;;;;12.40;4.07;;;;;;;16.86;47.34;102058.34;5081732;28;20471;-65
2023/06/02 11:22:37;;;;;;;14.32;4.10;;;;;;;17.01;47.54;102056.78;5067666;28;20039;-65